Jaen, Spain
Current Conditions -  °F | °C
As of 1:30 PM on Saturday 01 Nov 2014 (Local Time) from LEGR Reporting Station
Few Clouds Few Clouds  
Wind Chill: 73°   Ceiling: Unl
Heat Index: 73°   Visibility: 6mi
Dew Point: 48°   Wind: 1mph
Humidity: 41%   Direction: NA
Pressure: 30.21"   Gusts: NA
Location:  37.77°N, 3.79°W
Report Text: LEGR 011230Z VRB01KT 9999 FEW050 23/09 Q1023
Loading
Personal Weather Stations






























Interactive Weather Map
Tropical Storm Tracking
New forecast layout! Learn more

10-Day Weather Forecast

Advertisements
Track Severe Weather on mobile